sensor_id;sensor_type;location;lat;lon;timestamp;temperature;humidity
38237;DHT22;50101;49.438;11.098;2023-07-20T00:00:04;24.80;58.70
38237;DHT22;50101;49.438;11.098;2023-07-20T00:02:31;24.80;58.60
38237;DHT22;50101;49.438;11.098;2023-07-20T00:04:58;24.80;58.60
38237;DHT22;50101;49.438;11.098;2023-07-20T00:07:25;24.80;58.60
38237;DHT22;50101;49.438;11.098;2023-07-20T00:09:52;24.80;58.60
38237;DHT22;50101;49.438;11.098;2023-07-20T00:12:18;24.80;58.60
38237;DHT22;50101;49.438;11.098;2023-07-20T00:14:45;24.80;58.10
38237;DHT22;50101;49.438;11.098;2023-07-20T00:17:12;24.80;58.60
38237;DHT22;50101;49.438;11.098;2023-07-20T00:19:39;24.80;58.60
38237;DHT22;50101;49.438;11.098;2023-07-20T00:22:06;24.80;58.60
38237;DHT22;50101;49.438;11.098;2023-07-20T00:24:32;24.80;58.60
38237;DHT22;50101;49.438;11.098;2023-07-20T00:26:59;24.80;58.60
38237;DHT22;50101;49.438;11.098;2023-07-20T00:29:27;24.80;58.60
38237;DHT22;50101;49.438;11.098;2023-07-20T00:31:54;24.80;58.70
38237;DHT22;50101;49.438;11.098;2023-07-20T00:34:21;24.80;58.70
38237;DHT22;50101;49.438;11.098;2023-07-20T00:36:47;24.80;58.10
38237;DHT22;50101;49.438;11.098;2023-07-20T00:39:15;24.80;58.60
38237;DHT22;50101;49.438;11.098;2023-07-20T00:41:42;24.80;58.60
38237;DHT22;50101;49.438;11.098;2023-07-20T00:44:09;24.80;58.70
38237;DHT22;50101;49.438;11.098;2023-07-20T00:46:36;24.80;58.60
38237;DHT22;50101;49.438;11.098;2023-07-20T00:49:02;24.80;58.60
38237;DHT22;50101;49.438;11.098;2023-07-20T00:51:30;24.80;58.60
38237;DHT22;50101;49.438;11.098;2023-07-20T00:53:56;24.80;58.60
38237;DHT22;50101;49.438;11.098;2023-07-20T00:56:24;24.80;58.60
38237;DHT22;50101;49.438;11.098;2023-07-20T00:58:52;24.80;58.60
38237;DHT22;50101;49.438;11.098;2023-07-20T01:01:19;24.80;58.60
38237;DHT22;50101;49.438;11.098;2023-07-20T01:03:45;24.80;58.60
38237;DHT22;50101;49.438;11.098;2023-07-20T01:06:27;24.80;58.70
38237;DHT22;50101;49.438;11.098;2023-07-20T01:09:02;24.80;58.70
38237;DHT22;50101;49.438;11.098;2023-07-20T01:14:17;24.80;58.70
38237;DHT22;50101;49.438;11.098;2023-07-20T01:16:44;24.80;58.70
38237;DHT22;50101;49.438;11.098;2023-07-20T01:19:13;24.80;58.70
38237;DHT22;50101;49.438;11.098;2023-07-20T01:27:22;24.80;59.10
38237;DHT22;50101;49.438;11.098;2023-07-20T01:30:14;24.80;58.70
38237;DHT22;50101;49.438;11.098;2023-07-20T01:32:43;24.80;58.70
38237;DHT22;50101;49.438;11.098;2023-07-20T01:35:12;24.80;58.70
38237;DHT22;50101;49.438;11.098;2023-07-20T01:37:43;24.70;58.60
38237;DHT22;50101;49.438;11.098;2023-07-20T01:40:11;24.80;58.70
38237;DHT22;50101;49.438;11.098;2023-07-20T01:42:44;24.80;58.70
38237;DHT22;50101;49.438;11.098;2023-07-20T01:45:11;24.70;58.10
38237;DHT22;50101;49.438;11.098;2023-07-20T01:47:38;24.80;58.70
38237;DHT22;50101;49.438;11.098;2023-07-20T01:50:06;24.80;58.70
38237;DHT22;50101;49.438;11.098;2023-07-20T01:52:33;24.80;58.70
38237;DHT22;50101;49.438;11.098;2023-07-20T01:54:59;24.80;58.70
38237;DHT22;50101;49.438;11.098;2023-07-20T01:57:26;24.80;58.70
38237;DHT22;50101;49.438;11.098;2023-07-20T01:59:53;24.80;58.70
38237;DHT22;50101;49.438;11.098;2023-07-20T02:02:19;24.80;58.70
38237;DHT22;50101;49.438;11.098;2023-07-20T02:04:50;24.80;58.20
38237;DHT22;50101;49.438;11.098;2023-07-20T02:07:17;24.80;58.70
38237;DHT22;50101;49.438;11.098;2023-07-20T02:09:43;24.80;58.70
38237;DHT22;50101;49.438;11.098;2023-07-20T02:12:10;24.80;58.70
38237;DHT22;50101;49.438;11.098;2023-07-20T02:14:37;24.80;58.30
38237;DHT22;50101;49.438;11.098;2023-07-20T02:17:03;24.80;58.80
38237;DHT22;50101;49.438;11.098;2023-07-20T02:19:30;24.70;58.60
38237;DHT22;50101;49.438;11.098;2023-07-20T02:21:57;24.80;58.70
38237;DHT22;50101;49.438;11.098;2023-07-20T02:24:24;24.70;58.60
38237;DHT22;50101;49.438;11.098;2023-07-20T02:26:52;24.70;58.60
38237;DHT22;50101;49.438;11.098;2023-07-20T02:29:19;24.80;58.70
38237;DHT22;50101;49.438;11.098;2023-07-20T02:31:45;24.80;58.70
38237;DHT22;50101;49.438;11.098;2023-07-20T02:34:12;24.80;58.70
38237;DHT22;50101;49.438;11.098;2023-07-20T02:36:40;24.80;58.80
38237;DHT22;50101;49.438;11.098;2023-07-20T02:39:09;24.70;58.70
38237;DHT22;50101;49.438;11.098;2023-07-20T02:41:36;24.70;58.70
38237;DHT22;50101;49.438;11.098;2023-07-20T02:44:03;24.70;58.70
38237;DHT22;50101;49.438;11.098;2023-07-20T02:46:30;24.70;58.70
38237;DHT22;50101;49.438;11.098;2023-07-20T02:48:57;24.70;58.70
38237;DHT22;50101;49.438;11.098;2023-07-20T02:51:24;24.70;58.70
38237;DHT22;50101;49.438;11.098;2023-07-20T02:53:50;24.70;58.70
38237;DHT22;50101;49.438;11.098;2023-07-20T02:56:17;24.80;58.80
38237;DHT22;50101;49.438;11.098;2023-07-20T02:58:44;24.70;58.70
38237;DHT22;50101;49.438;11.098;2023-07-20T03:01:12;24.70;58.70
38237;DHT22;50101;49.438;11.098;2023-07-20T03:03:39;24.80;58.80
38237;DHT22;50101;49.438;11.098;2023-07-20T03:06:06;24.80;58.80
38237;DHT22;50101;49.438;11.098;2023-07-20T03:08:35;24.70;58.70
38237;DHT22;50101;49.438;11.098;2023-07-20T03:11:02;24.70;58.80
38237;DHT22;50101;49.438;11.098;2023-07-20T03:13:29;24.70;58.80
38237;DHT22;50101;49.438;11.098;2023-07-20T03:15:56;24.70;58.70
38237;DHT22;50101;49.438;11.098;2023-07-20T03:18:23;24.70;58.70
38237;DHT22;50101;49.438;11.098;2023-07-20T03:20:49;24.70;58.70
38237;DHT22;50101;49.438;11.098;2023-07-20T03:23:16;24.70;58.70
38237;DHT22;50101;49.438;11.098;2023-07-20T03:25:43;24.70;58.70
38237;DHT22;50101;49.438;11.098;2023-07-20T03:28:10;24.70;58.70
38237;DHT22;50101;49.438;11.098;2023-07-20T03:30:36;24.80;58.80
38237;DHT22;50101;49.438;11.098;2023-07-20T03:33:03;24.70;58.70
38237;DHT22;50101;49.438;11.098;2023-07-20T03:35:30;24.70;58.70
38237;DHT22;50101;49.438;11.098;2023-07-20T03:37:57;24.70;58.70
38237;DHT22;50101;49.438;11.098;2023-07-20T03:40:24;24.70;58.70
38237;DHT22;50101;49.438;11.098;2023-07-20T03:42:51;24.70;58.70
38237;DHT22;50101;49.438;11.098;2023-07-20T03:45:18;24.70;58.70
38237;DHT22;50101;49.438;11.098;2023-07-20T03:47:45;24.70;58.70
38237;DHT22;50101;49.438;11.098;2023-07-20T03:50:11;24.70;58.70
38237;DHT22;50101;49.438;11.098;2023-07-20T03:52:38;24.70;58.70
38237;DHT22;50101;49.438;11.098;2023-07-20T03:55:05;24.70;58.70
38237;DHT22;50101;49.438;11.098;2023-07-20T03:57:32;24.70;58.80
38237;DHT22;50101;49.438;11.098;2023-07-20T03:59:59;24.70;58.80
38237;DHT22;50101;49.438;11.098;2023-07-20T04:02:26;24.70;58.80
38237;DHT22;50101;49.438;11.098;2023-07-20T04:04:53;24.70;58.30
38237;DHT22;50101;49.438;11.098;2023-07-20T04:07:20;24.70;58.80
38237;DHT22;50101;49.438;11.098;2023-07-20T04:09:46;24.70;58.70
38237;DHT22;50101;49.438;11.098;2023-07-20T04:12:13;24.70;58.80
38237;DHT22;50101;49.438;11.098;2023-07-20T04:14:40;24.70;58.30
38237;DHT22;50101;49.438;11.098;2023-07-20T04:17:07;24.70;58.80
38237;DHT22;50101;49.438;11.098;2023-07-20T04:19:33;24.70;58.80
38237;DHT22;50101;49.438;11.098;2023-07-20T04:22:00;24.70;58.70
38237;DHT22;50101;49.438;11.098;2023-07-20T04:24:27;24.70;58.70
38237;DHT22;50101;49.438;11.098;2023-07-20T04:26:53;24.70;58.70
38237;DHT22;50101;49.438;11.098;2023-07-20T04:29:20;24.70;58.70
38237;DHT22;50101;49.438;11.098;2023-07-20T04:31:47;24.70;58.70
38237;DHT22;50101;49.438;11.098;2023-07-20T04:34:14;24.70;58.70
38237;DHT22;50101;49.438;11.098;2023-07-20T04:36:40;24.60;58.60
38237;DHT22;50101;49.438;11.098;2023-07-20T04:39:07;24.70;58.80
38237;DHT22;50101;49.438;11.098;2023-07-20T04:41:51;24.70;58.70
38237;DHT22;50101;49.438;11.098;2023-07-20T04:44:18;24.70;58.80
38237;DHT22;50101;49.438;11.098;2023-07-20T04:46:44;24.70;58.80
38237;DHT22;50101;49.438;11.098;2023-07-20T04:49:13;24.70;58.80
38237;DHT22;50101;49.438;11.098;2023-07-20T04:51:39;24.70;58.90
38237;DHT22;50101;49.438;11.098;2023-07-20T04:54:06;24.70;58.80
38237;DHT22;50101;49.438;11.098;2023-07-20T04:56:33;24.80;59.60
38237;DHT22;50101;49.438;11.098;2023-07-20T04:59:00;24.70;59.40
38237;DHT22;50101;49.438;11.098;2023-07-20T05:01:26;24.70;59.50
38237;DHT22;50101;49.438;11.098;2023-07-20T05:03:53;24.80;59.40
38237;DHT22;50101;49.438;11.098;2023-07-20T05:06:20;24.70;59.20
38237;DHT22;50101;49.438;11.098;2023-07-20T05:08:47;24.70;59.20
38237;DHT22;50101;49.438;11.098;2023-07-20T05:11:14;24.70;59.30
38237;DHT22;50101;49.438;11.098;2023-07-20T05:13:41;24.80;59.20
38237;DHT22;50101;49.438;11.098;2023-07-20T05:16:08;24.60;59.10
38237;DHT22;50101;49.438;11.098;2023-07-20T05:18:35;24.70;59.20
38237;DHT22;50101;49.438;11.098;2023-07-20T05:21:01;24.70;59.20
38237;DHT22;50101;49.438;11.098;2023-07-20T05:23:28;24.80;59.20
38237;DHT22;50101;49.438;11.098;2023-07-20T05:25:56;24.80;59.40
38237;DHT22;50101;49.438;11.098;2023-07-20T05:28:23;24.70;59.20
38237;DHT22;50101;49.438;11.098;2023-07-20T05:30:51;24.80;59.40
38237;DHT22;50101;49.438;11.098;2023-07-20T05:33:21;24.70;59.30
38237;DHT22;50101;49.438;11.098;2023-07-20T05:35:48;24.70;59.30
38237;DHT22;50101;49.438;11.098;2023-07-20T05:38:15;24.70;59.20
38237;DHT22;50101;49.438;11.098;2023-07-20T05:40:43;24.70;59.20
38237;DHT22;50101;49.438;11.098;2023-07-20T05:43:11;24.80;59.40
38237;DHT22;50101;49.438;11.098;2023-07-20T05:45:41;24.70;58.80
38237;DHT22;50101;49.438;11.098;2023-07-20T05:48:08;24.80;59.40
38237;DHT22;50101;49.438;11.098;2023-07-20T05:50:41;24.80;59.40
38237;DHT22;50101;49.438;11.098;2023-07-20T05:53:09;24.80;59.40
38237;DHT22;50101;49.438;11.098;2023-07-20T05:55:35;24.70;59.30
38237;DHT22;50101;49.438;11.098;2023-07-20T05:58:02;24.80;59.40
38237;DHT22;50101;49.438;11.098;2023-07-20T06:00:30;24.80;59.40
38237;DHT22;50101;49.438;11.098;2023-07-20T06:02:57;24.80;59.30
38237;DHT22;50101;49.438;11.098;2023-07-20T06:05:24;24.80;59.40
38237;DHT22;50101;49.438;11.098;2023-07-20T06:07:55;24.80;59.40
38237;DHT22;50101;49.438;11.098;2023-07-20T06:10:22;24.80;59.50
38237;DHT22;50101;49.438;11.098;2023-07-20T06:12:48;24.90;59.30
38237;DHT22;50101;49.438;11.098;2023-07-20T06:15:26;24.90;58.80
38237;DHT22;50101;49.438;11.098;2023-07-20T06:17:54;24.90;59.30
38237;DHT22;50101;49.438;11.098;2023-07-20T06:20:22;24.80;59.20
38237;DHT22;50101;49.438;11.098;2023-07-20T06:22:49;24.80;59.20
38237;DHT22;50101;49.438;11.098;2023-07-20T06:25:15;24.80;59.20
38237;DHT22;50101;49.438;11.098;2023-07-20T06:27:42;24.80;59.30
38237;DHT22;50101;49.438;11.098;2023-07-20T06:30:10;24.90;59.20
38237;DHT22;50101;49.438;11.098;2023-07-20T06:32:37;24.90;59.10
38237;DHT22;50101;49.438;11.098;2023-07-20T06:35:05;24.80;58.60
38237;DHT22;50101;49.438;11.098;2023-07-20T06:37:31;24.90;59.10
38237;DHT22;50101;49.438;11.098;2023-07-20T06:39:59;24.90;59.20
38237;DHT22;50101;49.438;11.098;2023-07-20T06:42:29;24.80;59.00
38237;DHT22;50101;49.438;11.098;2023-07-20T06:45:16;24.90;59.10
38237;DHT22;50101;49.438;11.098;2023-07-20T06:47:43;24.90;59.10
38237;DHT22;50101;49.438;11.098;2023-07-20T06:50:10;24.90;59.10
38237;DHT22;50101;49.438;11.098;2023-07-20T06:52:43;24.90;59.10
38237;DHT22;50101;49.438;11.098;2023-07-20T06:55:10;24.90;59.00
38237;DHT22;50101;49.438;11.098;2023-07-20T06:57:36;24.90;59.00
38237;DHT22;50101;49.438;11.098;2023-07-20T07:00:04;24.90;59.00
38237;DHT22;50101;49.438;11.098;2023-07-20T07:02:31;24.90;58.90
38237;DHT22;50101;49.438;11.098;2023-07-20T07:04:58;24.90;59.00
38237;DHT22;50101;49.438;11.098;2023-07-20T07:07:44;24.90;59.00
38237;DHT22;50101;49.438;11.098;2023-07-20T07:10:11;24.90;59.00
38237;DHT22;50101;49.438;11.098;2023-07-20T07:12:37;24.90;58.90
38237;DHT22;50101;49.438;11.098;2023-07-20T07:15:05;24.90;58.90
38237;DHT22;50101;49.438;11.098;2023-07-20T07:17:34;25.00;59.00
38237;DHT22;50101;49.438;11.098;2023-07-20T07:20:05;24.90;58.80
38237;DHT22;50101;49.438;11.098;2023-07-20T07:22:35;25.00;59.40
38237;DHT22;50101;49.438;11.098;2023-07-20T07:25:01;25.00;58.80
38237;DHT22;50101;49.438;11.098;2023-07-20T07:27:29;25.00;58.80
38237;DHT22;50101;49.438;11.098;2023-07-20T07:29:56;25.00;58.80
38237;DHT22;50101;49.438;11.098;2023-07-20T07:32:23;25.00;58.80
38237;DHT22;50101;49.438;11.098;2023-07-20T07:34:50;25.00;58.80
38237;DHT22;50101;49.438;11.098;2023-07-20T07:37:17;24.90;58.80
38237;DHT22;50101;49.438;11.098;2023-07-20T07:39:46;25.00;58.80
38237;DHT22;50101;49.438;11.098;2023-07-20T07:42:12;25.00;58.80
38237;DHT22;50101;49.438;11.098;2023-07-20T07:44:39;25.00;58.80
38237;DHT22;50101;49.438;11.098;2023-07-20T07:47:06;25.00;58.80
38237;DHT22;50101;49.438;11.098;2023-07-20T07:49:33;25.00;58.70
38237;DHT22;50101;49.438;11.098;2023-07-20T07:52:00;25.00;58.80
38237;DHT22;50101;49.438;11.098;2023-07-20T07:54:28;25.00;58.70
38237;DHT22;50101;49.438;11.098;2023-07-20T07:56:56;25.00;58.70
38237;DHT22;50101;49.438;11.098;2023-07-20T07:59:23;25.00;58.70
38237;DHT22;50101;49.438;11.098;2023-07-20T08:01:49;25.00;58.70
38237;DHT22;50101;49.438;11.098;2023-07-20T08:04:16;25.00;58.70
38237;DHT22;50101;49.438;11.098;2023-07-20T08:06:43;25.00;58.60
38237;DHT22;50101;49.438;11.098;2023-07-20T08:09:09;25.00;58.50
38237;DHT22;50101;49.438;11.098;2023-07-20T08:11:39;25.00;58.50
38237;DHT22;50101;49.438;11.098;2023-07-20T08:14:06;25.00;58.30
38237;DHT22;50101;49.438;11.098;2023-07-20T08:16:32;25.10;58.40
38237;DHT22;50101;49.438;11.098;2023-07-20T08:18:59;25.00;58.50
38237;DHT22;50101;49.438;11.098;2023-07-20T08:21:26;25.00;58.40
38237;DHT22;50101;49.438;11.098;2023-07-20T08:23:53;25.00;58.30
38237;DHT22;50101;49.438;11.098;2023-07-20T08:26:20;25.10;58.50
38237;DHT22;50101;49.438;11.098;2023-07-20T08:28:49;25.00;58.30
38237;DHT22;50101;49.438;11.098;2023-07-20T08:31:16;25.00;58.30
38237;DHT22;50101;49.438;11.098;2023-07-20T08:33:43;25.00;58.30
38237;DHT22;50101;49.438;11.098;2023-07-20T08:36:09;25.00;58.30
38237;DHT22;50101;49.438;11.098;2023-07-20T08:38:37;25.00;58.20
38237;DHT22;50101;49.438;11.098;2023-07-20T08:41:04;25.00;58.60
38237;DHT22;50101;49.438;11.098;2023-07-20T08:43:31;25.10;58.60
38237;DHT22;50101;49.438;11.098;2023-07-20T08:46:00;25.10;58.20
38237;DHT22;50101;49.438;11.098;2023-07-20T08:48:30;25.10;58.40
38237;DHT22;50101;49.438;11.098;2023-07-20T08:50:58;25.10;58.50
38237;DHT22;50101;49.438;11.098;2023-07-20T08:53:27;25.20;58.70
38237;DHT22;50101;49.438;11.098;2023-07-20T08:55:54;25.20;58.30
38237;DHT22;50101;49.438;11.098;2023-07-20T08:58:23;25.10;58.40
38237;DHT22;50101;49.438;11.098;2023-07-20T09:00:53;25.10;58.40
38237;DHT22;50101;49.438;11.098;2023-07-20T09:03:21;25.10;58.50
38237;DHT22;50101;49.438;11.098;2023-07-20T09:05:47;25.10;58.50
38237;DHT22;50101;49.438;11.098;2023-07-20T09:08:14;25.10;58.50
38237;DHT22;50101;49.438;11.098;2023-07-20T09:10:41;25.10;58.40
38237;DHT22;50101;49.438;11.098;2023-07-20T09:13:08;25.20;58.40
38237;DHT22;50101;49.438;11.098;2023-07-20T09:15:36;25.20;58.40
38237;DHT22;50101;49.438;11.098;2023-07-20T09:18:03;25.20;58.40
38237;DHT22;50101;49.438;11.098;2023-07-20T09:20:32;25.20;58.50
38237;DHT22;50101;49.438;11.098;2023-07-20T09:23:00;25.10;58.40
38237;DHT22;50101;49.438;11.098;2023-07-20T09:25:30;25.20;58.70
38237;DHT22;50101;49.438;11.098;2023-07-20T09:27:59;25.20;58.70
38237;DHT22;50101;49.438;11.098;2023-07-20T09:30:28;25.20;58.80
38237;DHT22;50101;49.438;11.098;2023-07-20T09:32:58;25.20;58.60
38237;DHT22;50101;49.438;11.098;2023-07-20T09:35:25;25.20;58.60
38237;DHT22;50101;49.438;11.098;2023-07-20T09:38:01;25.20;58.70
38237;DHT22;50101;49.438;11.098;2023-07-20T09:40:37;25.20;58.60
38237;DHT22;50101;49.438;11.098;2023-07-20T09:43:10;25.20;58.70
38237;DHT22;50101;49.438;11.098;2023-07-20T09:45:41;25.20;58.30
38237;DHT22;50101;49.438;11.098;2023-07-20T09:48:11;25.20;58.80
38237;DHT22;50101;49.438;11.098;2023-07-20T09:50:48;25.20;58.80
38237;DHT22;50101;49.438;11.098;2023-07-20T09:53:17;25.20;58.80
38237;DHT22;50101;49.438;11.098;2023-07-20T09:55:45;25.10;58.70
38237;DHT22;50101;49.438;11.098;2023-07-20T09:58:13;25.10;58.80
38237;DHT22;50101;49.438;11.098;2023-07-20T10:00:40;25.20;59.00
38237;DHT22;50101;49.438;11.098;2023-07-20T10:03:19;25.20;58.90
38237;DHT22;50101;49.438;11.098;2023-07-20T10:05:54;25.20;58.40
38237;DHT22;50101;49.438;11.098;2023-07-20T10:08:24;25.20;58.90
38237;DHT22;50101;49.438;11.098;2023-07-20T10:10:55;25.30;59.30
38237;DHT22;50101;49.438;11.098;2023-07-20T10:13:26;25.30;59.30
38237;DHT22;50101;49.438;11.098;2023-07-20T10:16:08;25.20;59.40
38237;DHT22;50101;49.438;11.098;2023-07-20T10:18:51;25.20;59.30
38237;DHT22;50101;49.438;11.098;2023-07-20T10:21:21;25.20;59.30
38237;DHT22;50101;49.438;11.098;2023-07-20T10:23:55;25.20;59.30
38237;DHT22;50101;49.438;11.098;2023-07-20T10:26:25;25.20;59.20
38237;DHT22;50101;49.438;11.098;2023-07-20T10:28:53;25.20;59.30
38237;DHT22;50101;49.438;11.098;2023-07-20T10:31:20;25.20;59.10
38237;DHT22;50101;49.438;11.098;2023-07-20T10:33:48;25.20;59.30
38237;DHT22;50101;49.438;11.098;2023-07-20T10:36:24;25.20;59.30
38237;DHT22;50101;49.438;11.098;2023-07-20T10:41:21;25.20;59.10
38237;DHT22;50101;49.438;11.098;2023-07-20T10:43:48;25.20;59.30
38237;DHT22;50101;49.438;11.098;2023-07-20T10:49:07;25.20;59.10
38237;DHT22;50101;49.438;11.098;2023-07-20T10:54:09;25.20;59.10
38237;DHT22;50101;49.438;11.098;2023-07-20T10:56:36;25.20;59.10
38237;DHT22;50101;49.438;11.098;2023-07-20T10:59:18;25.20;59.30
38237;DHT22;50101;49.438;11.098;2023-07-20T11:01:48;25.20;59.50
38237;DHT22;50101;49.438;11.098;2023-07-20T11:04:17;25.30;59.50
38237;DHT22;50101;49.438;11.098;2023-07-20T11:06:55;25.30;59.30
38237;DHT22;50101;49.438;11.098;2023-07-20T11:09:22;25.30;59.30
38237;DHT22;50101;49.438;11.098;2023-07-20T11:12:15;25.20;59.10
38237;DHT22;50101;49.438;11.098;2023-07-20T11:14:57;25.30;59.20
38237;DHT22;50101;49.438;11.098;2023-07-20T11:17:31;25.30;59.10
38237;DHT22;50101;49.438;11.098;2023-07-20T11:19:59;25.30;59.10
38237;DHT22;50101;49.438;11.098;2023-07-20T11:22:33;25.30;59.20
38237;DHT22;50101;49.438;11.098;2023-07-20T11:25:00;25.30;59.20
38237;DHT22;50101;49.438;11.098;2023-07-20T11:27:27;25.30;59.30
38237;DHT22;50101;49.438;11.098;2023-07-20T11:29:55;25.30;59.30
38237;DHT22;50101;49.438;11.098;2023-07-20T11:32:22;25.30;59.10
38237;DHT22;50101;49.438;11.098;2023-07-20T11:34:50;25.30;59.10
38237;DHT22;50101;49.438;11.098;2023-07-20T11:37:17;25.30;59.00
38237;DHT22;50101;49.438;11.098;2023-07-20T11:39:45;25.30;59.10
38237;DHT22;50101;49.438;11.098;2023-07-20T11:42:12;25.20;59.00
38237;DHT22;50101;49.438;11.098;2023-07-20T11:44:39;25.30;59.10
38237;DHT22;50101;49.438;11.098;2023-07-20T11:47:10;25.30;59.30
38237;DHT22;50101;49.438;11.098;2023-07-20T11:49:40;25.30;59.30
38237;DHT22;50101;49.438;11.098;2023-07-20T11:52:11;25.30;59.20
38237;DHT22;50101;49.438;11.098;2023-07-20T11:54:40;25.30;59.20
38237;DHT22;50101;49.438;11.098;2023-07-20T11:57:19;25.30;59.30
38237;DHT22;50101;49.438;11.098;2023-07-20T12:00:02;25.30;59.50
38237;DHT22;50101;49.438;11.098;2023-07-20T12:02:38;25.20;59.30
38237;DHT22;50101;49.438;11.098;2023-07-20T12:05:08;25.30;59.10
38237;DHT22;50101;49.438;11.098;2023-07-20T12:07:36;25.20;59.40
38237;DHT22;50101;49.438;11.098;2023-07-20T12:10:08;25.20;59.10
38237;DHT22;50101;49.438;11.098;2023-07-20T12:12:39;25.30;59.10
38237;DHT22;50101;49.438;11.098;2023-07-20T12:15:20;25.30;59.40
38237;DHT22;50101;49.438;11.098;2023-07-20T12:17:51;25.20;59.20
38237;DHT22;50101;49.438;11.098;2023-07-20T12:20:28;25.30;59.30
38237;DHT22;50101;49.438;11.098;2023-07-20T12:23:13;25.40;59.80
38237;DHT22;50101;49.438;11.098;2023-07-20T12:25:41;25.30;58.80
38237;DHT22;50101;49.438;11.098;2023-07-20T12:28:13;25.30;59.80
38237;DHT22;50101;49.438;11.098;2023-07-20T12:30:41;25.30;59.80
38237;DHT22;50101;49.438;11.098;2023-07-20T12:33:08;25.30;60.00
38237;DHT22;50101;49.438;11.098;2023-07-20T12:35:35;25.40;59.40
38237;DHT22;50101;49.438;11.098;2023-07-20T12:38:02;25.40;59.30
38237;DHT22;50101;49.438;11.098;2023-07-20T12:40:29;25.40;59.40
38237;DHT22;50101;49.438;11.098;2023-07-20T12:42:57;25.40;59.30
38237;DHT22;50101;49.438;11.098;2023-07-20T12:45:24;25.30;58.50
38237;DHT22;50101;49.438;11.098;2023-07-20T12:47:50;25.30;59.00
38237;DHT22;50101;49.438;11.098;2023-07-20T12:50:17;25.30;59.00
38237;DHT22;50101;49.438;11.098;2023-07-20T12:52:44;25.30;59.00
38237;DHT22;50101;49.438;11.098;2023-07-20T12:55:11;25.30;57.80
38237;DHT22;50101;49.438;11.098;2023-07-20T12:57:38;25.40;58.30
38237;DHT22;50101;49.438;11.098;2023-07-20T13:00:08;25.30;58.00
38237;DHT22;50101;49.438;11.098;2023-07-20T13:02:35;25.40;58.60
38237;DHT22;50101;49.438;11.098;2023-07-20T13:05:03;25.40;58.10
38237;DHT22;50101;49.438;11.098;2023-07-20T13:07:31;25.30;58.00
38237;DHT22;50101;49.438;11.098;2023-07-20T13:10:02;25.30;58.00
38237;DHT22;50101;49.438;11.098;2023-07-20T13:12:32;25.30;58.20
38237;DHT22;50101;49.438;11.098;2023-07-20T13:15:01;25.30;57.40
38237;DHT22;50101;49.438;11.098;2023-07-20T13:17:29;25.30;58.00
38237;DHT22;50101;49.438;11.098;2023-07-20T13:19:55;25.20;57.90
38237;DHT22;50101;49.438;11.098;2023-07-20T13:22:22;25.30;58.00
38237;DHT22;50101;49.438;11.098;2023-07-20T13:24:53;25.30;57.40
38237;DHT22;50101;49.438;11.098;2023-07-20T13:27:20;25.30;58.00
38237;DHT22;50101;49.438;11.098;2023-07-20T13:29:46;25.30;57.70
38237;DHT22;50101;49.438;11.098;2023-07-20T13:32:15;25.30;58.00
38237;DHT22;50101;49.438;11.098;2023-07-20T13:34:42;25.30;58.00
38237;DHT22;50101;49.438;11.098;2023-07-20T13:37:11;25.30;56.90
38237;DHT22;50101;49.438;11.098;2023-07-20T13:39:39;25.30;56.50
38237;DHT22;50101;49.438;11.098;2023-07-20T13:42:07;25.40;56.40
38237;DHT22;50101;49.438;11.098;2023-07-20T13:44:35;25.40;56.50
38237;DHT22;50101;49.438;11.098;2023-07-20T13:47:02;25.30;57.30
38237;DHT22;50101;49.438;11.098;2023-07-20T13:49:31;25.30;57.10
38237;DHT22;50101;49.438;11.098;2023-07-20T13:52:02;25.30;56.60
38237;DHT22;50101;49.438;11.098;2023-07-20T13:54:32;25.40;57.30
38237;DHT22;50101;49.438;11.098;2023-07-20T13:56:59;25.40;56.90
38237;DHT22;50101;49.438;11.098;2023-07-20T13:59:25;25.40;57.30
38237;DHT22;50101;49.438;11.098;2023-07-20T14:01:52;25.40;57.20
38237;DHT22;50101;49.438;11.098;2023-07-20T14:04:39;25.40;56.80
38237;DHT22;50101;49.438;11.098;2023-07-20T14:07:06;25.40;57.10
38237;DHT22;50101;49.438;11.098;2023-07-20T14:09:33;25.40;56.90
38237;DHT22;50101;49.438;11.098;2023-07-20T14:12:00;25.40;57.10
38237;DHT22;50101;49.438;11.098;2023-07-20T14:14:29;25.40;57.10
38237;DHT22;50101;49.438;11.098;2023-07-20T14:16:57;25.30;56.40
38237;DHT22;50101;49.438;11.098;2023-07-20T14:19:23;25.30;56.60
38237;DHT22;50101;49.438;11.098;2023-07-20T14:21:50;25.30;56.90
38237;DHT22;50101;49.438;11.098;2023-07-20T14:24:17;25.40;56.70
38237;DHT22;50101;49.438;11.098;2023-07-20T14:26:45;25.30;56.90
38237;DHT22;50101;49.438;11.098;2023-07-20T14:29:18;25.30;56.80
38237;DHT22;50101;49.438;11.098;2023-07-20T14:31:45;25.40;56.80
38237;DHT22;50101;49.438;11.098;2023-07-20T14:34:15;25.40;56.70
38237;DHT22;50101;49.438;11.098;2023-07-20T14:36:42;25.30;55.80
38237;DHT22;50101;49.438;11.098;2023-07-20T14:39:09;25.40;56.50
38237;DHT22;50101;49.438;11.098;2023-07-20T14:41:36;25.30;56.40
38237;DHT22;50101;49.438;11.098;2023-07-20T14:44:03;25.40;56.90
38237;DHT22;50101;49.438;11.098;2023-07-20T14:46:31;25.30;56.80
38237;DHT22;50101;49.438;11.098;2023-07-20T14:48:58;25.30;55.90
38237;DHT22;50101;49.438;11.098;2023-07-20T14:51:25;25.30;56.50
38237;DHT22;50101;49.438;11.098;2023-07-20T14:54:03;25.30;56.40
38237;DHT22;50101;49.438;11.098;2023-07-20T14:56:30;25.30;56.50
38237;DHT22;50101;49.438;11.098;2023-07-20T14:58:57;25.30;56.40
38237;DHT22;50101;49.438;11.098;2023-07-20T15:01:24;25.30;56.60
38237;DHT22;50101;49.438;11.098;2023-07-20T15:03:52;25.30;56.80
38237;DHT22;50101;49.438;11.098;2023-07-20T15:06:23;25.30;56.90
38237;DHT22;50101;49.438;11.098;2023-07-20T15:08:50;25.30;56.90
38237;DHT22;50101;49.438;11.098;2023-07-20T15:11:17;25.30;56.90
38237;DHT22;50101;49.438;11.098;2023-07-20T15:13:43;25.20;56.70
38237;DHT22;50101;49.438;11.098;2023-07-20T15:16:10;25.30;56.40
38237;DHT22;50101;49.438;11.098;2023-07-20T15:18:37;25.30;56.70
38237;DHT22;50101;49.438;11.098;2023-07-20T15:21:14;25.30;56.80
38237;DHT22;50101;49.438;11.098;2023-07-20T15:23:41;25.30;56.80
38237;DHT22;50101;49.438;11.098;2023-07-20T15:26:08;25.30;56.90
38237;DHT22;50101;49.438;11.098;2023-07-20T15:28:35;25.30;56.90
38237;DHT22;50101;49.438;11.098;2023-07-20T15:31:04;25.30;56.90
38237;DHT22;50101;49.438;11.098;2023-07-20T15:33:31;25.30;57.00
38237;DHT22;50101;49.438;11.098;2023-07-20T15:35:58;25.30;57.00
38237;DHT22;50101;49.438;11.098;2023-07-20T15:38:24;25.30;56.90